Bourbonnais, IL (60914)

4:41 AM CDT on April 27, 2017 (GMT -0500)
Cap Estates | | Change Station

Elev 620 ft 41.17 °N, 87.83 °W | Updated 15 seconds ago

Overcast
Overcast
58.8 °F
Feels Like 58.8 °F
N
10.1
Wind Variable Wind from SSE
Gusts 15.0 mph

Today
High -- | Low -- °F
--% Chance of Precip.
Yesterday
High -- | Low -- °F
Precip. -- in
Pressure 29.35 in
Visibility 10.0 miles
Clouds Scattered Clouds 3200 ft
Mostly Cloudy 3900 ft
Overcast 7500 ft
Dew Point 55 °F
Humidity 86%
Rainfall 0.02 in
Snow Depth Not available.
5:54 AM 7:44 PM
New Moon, 1% visible
METAR KIKK 270935Z AUTO 18014G18KT 10SM SCT032 BKN039 OVC075 14/14 A2935 RMK AO2 T01440140
Pressure 29.35 in
Visibility 10.0 miles
Clouds Scattered Clouds 3200 ft
Mostly Cloudy 3900 ft
Overcast 7500 ft
Dew Point 55 °F
Humidity 86%
Rainfall 0.02 in
Snow Depth Not available.
5:54 AM 7:44 PM
New Moon, 1% visible
METAR KIKK 270935Z AUTO 18014G18KT 10SM SCT032 BKN039 OVC075 14/14 A2935 RMK AO2 T01440140

Get Severe Weather Alerts

Thanks for signing up!

Be on the lookout for a verification email in your inbox.

You'll start receiving the daily forecast at 8 AM.

×

10-Day Weather Forecast

Almanac

Astronomy

Apr. 27, 2017 Rise Set
Actual Time
Civil Twilight
Nautical Twilight
Astronomical Twilight
Moon
Length of Visible Light
Length of Day
Tomorrow will be .
, % of the Moon is Illuminated

Today's Extremes

State Highs State Lows

Community

WunderPhotos

WunderBlog® & News

Nearby

Air Quality

  Air Quality AQ Index Pollutant
Not available.

Snow Depth

Station Depth Elevation

Earthquake Activity

City Distance Mag. Time & Date
Minimum magnitude displayed is 2.5.

Coastal Water Temperatures

Place Temperature

Stations

Nearby Weather Stations

Station Location Temp. Windchill Dew Point Humidity Wind Precip. Elev Updated Type
                   

Watches & Warnings

There are currently no watches in effect.